Terminal Aerodrome Forecast
Issued by NWS

Home | Current Version | Previous Version | Text Only | Print | Product List | Glossary Off
Versions: 1 2 3 4 5 6 7 8 9 10 11 12 13 14 15 16 17 18 19 20 21 22

629
FTUS43 KABR 070214 AAC
TAFATY
TAF AMD
KATY 070214Z 0702/0724 29018G30KT 3SM -SN BLSN OVC013
     FM070400 29023G32KT P6SM BKN050
     FM071400 30017G24KT P6SM OVC015=

USA.gov is the U.S. government's official web portal to all federal, state and local government web resources and services.